sensor_id;sensor_type;location;lat;lon;timestamp;P1;durP1;ratioP1;P2;durP2;ratioP2
73678;SDS011;61978;52.742;16.962;2024-03-02T00:15:36;95.30;;;67.60;;
73678;SDS011;61978;52.742;16.962;2024-03-02T00:18:11;83.40;;;62.50;;
73678;SDS011;61978;52.742;16.962;2024-03-02T00:20:39;94.70;;;68.10;;
73678;SDS011;61978;52.742;16.962;2024-03-02T00:23:31;90.00;;;64.30;;
73678;SDS011;61978;52.742;16.962;2024-03-02T00:26:03;92.80;;;68.60;;
73678;SDS011;61978;52.742;16.962;2024-03-02T00:28:38;95.20;;;68.20;;
73678;SDS011;61978;52.742;16.962;2024-03-02T00:31:10;91.80;;;66.60;;
73678;SDS011;61978;52.742;16.962;2024-03-02T00:33:44;100.50;;;72.40;;
73678;SDS011;61978;52.742;16.962;2024-03-02T00:36:15;101.30;;;71.60;;
73678;SDS011;61978;52.742;16.962;2024-03-02T00:38:48;98.40;;;68.60;;
73678;SDS011;61978;52.742;16.962;2024-03-02T00:41:20;98.10;;;68.70;;
73678;SDS011;61978;52.742;16.962;2024-03-02T00:43:56;104.70;;;74.40;;
73678;SDS011;61978;52.742;16.962;2024-03-02T00:46:27;107.70;;;75.10;;
73678;SDS011;61978;52.742;16.962;2024-03-02T00:48:57;104.50;;;71.90;;
73678;SDS011;61978;52.742;16.962;2024-03-02T00:51:27;121.10;;;76.50;;
73678;SDS011;61978;52.742;16.962;2024-03-02T00:54:26;104.60;;;73.80;;
73678;SDS011;61978;52.742;16.962;2024-03-02T00:57:00;106.90;;;73.40;;
73678;SDS011;61978;52.742;16.962;2024-03-02T00:59:33;105.60;;;72.40;;
73678;SDS011;61978;52.742;16.962;2024-03-02T01:01:59;117.90;;;78.40;;
73678;SDS011;61978;52.742;16.962;2024-03-02T01:04:25;111.50;;;75.20;;
73678;SDS011;61978;52.742;16.962;2024-03-02T01:06:54;107.30;;;75.90;;
73678;SDS011;61978;52.742;16.962;2024-03-02T01:09:20;121.10;;;77.20;;
73678;SDS011;61978;52.742;16.962;2024-03-02T01:11:51;122.50;;;77.30;;
73678;SDS011;61978;52.742;16.962;2024-03-02T01:14:20;121.40;;;76.60;;
73678;SDS011;61978;52.742;16.962;2024-03-02T01:16:49;122.80;;;79.50;;
73678;SDS011;61978;52.742;16.962;2024-03-02T01:19:35;122.00;;;79.60;;
73678;SDS011;61978;52.742;16.962;2024-03-02T01:22:07;122.70;;;78.30;;
73678;SDS011;61978;52.742;16.962;2024-03-02T01:24:34;123.20;;;74.60;;
73678;SDS011;61978;52.742;16.962;2024-03-02T01:29:42;122.60;;;79.30;;
73678;SDS011;61978;52.742;16.962;2024-03-02T01:32:14;108.40;;;72.60;;
73678;SDS011;61978;52.742;16.962;2024-03-02T01:34:44;112.10;;;71.80;;
73678;SDS011;61978;52.742;16.962;2024-03-02T01:37:10;114.20;;;72.50;;
73678;SDS011;61978;52.742;16.962;2024-03-02T01:39:42;111.40;;;71.80;;
73678;SDS011;61978;52.742;16.962;2024-03-02T01:58:55;113.40;;;69.50;;
73678;SDS011;61978;52.742;16.962;2024-03-02T02:01:31;111.50;;;69.50;;
73678;SDS011;61978;52.742;16.962;2024-03-02T02:04:00;105.90;;;70.50;;
73678;SDS011;61978;52.742;16.962;2024-03-02T02:06:31;110.20;;;69.00;;
73678;SDS011;61978;52.742;16.962;2024-03-02T02:11:59;107.80;;;70.70;;
73678;SDS011;61978;52.742;16.962;2024-03-02T02:14:49;110.40;;;69.50;;
73678;SDS011;61978;52.742;16.962;2024-03-02T02:20:26;104.10;;;67.50;;
73678;SDS011;61978;52.742;16.962;2024-03-02T02:23:36;105.10;;;69.60;;
73678;SDS011;61978;52.742;16.962;2024-03-02T02:26:14;100.30;;;64.30;;
73678;SDS011;61978;52.742;16.962;2024-03-02T04:40:24;71.40;;;54.30;;
73678;SDS011;61978;52.742;16.962;2024-03-02T04:43:35;80.20;;;57.50;;
73678;SDS011;61978;52.742;16.962;2024-03-02T04:48:59;80.70;;;56.80;;
73678;SDS011;61978;52.742;16.962;2024-03-02T04:51:25;77.10;;;55.20;;
73678;SDS011;61978;52.742;16.962;2024-03-02T05:07:36;75.80;;;55.10;;
73678;SDS011;61978;52.742;16.962;2024-03-02T05:12:43;78.70;;;55.60;;
73678;SDS011;61978;52.742;16.962;2024-03-02T05:15:15;76.80;;;50.80;;
73678;SDS011;61978;52.742;16.962;2024-03-02T05:17:41;74.10;;;53.60;;
73678;SDS011;61978;52.742;16.962;2024-03-02T05:20:32;78.10;;;55.30;;
73678;SDS011;61978;52.742;16.962;2024-03-02T05:23:05;73.20;;;55.70;;
73678;SDS011;61978;52.742;16.962;2024-03-02T05:25:31;75.00;;;52.30;;
73678;SDS011;61978;52.742;16.962;2024-03-02T05:28:00;74.40;;;54.50;;
73678;SDS011;61978;52.742;16.962;2024-03-02T05:30:26;76.90;;;53.80;;
73678;SDS011;61978;52.742;16.962;2024-03-02T05:32:53;77.40;;;53.20;;
73678;SDS011;61978;52.742;16.962;2024-03-02T05:35:21;79.00;;;53.80;;
73678;SDS011;61978;52.742;16.962;2024-03-02T05:55:02;72.50;;;51.60;;
73678;SDS011;61978;52.742;16.962;2024-03-02T05:57:43;70.80;;;52.70;;
73678;SDS011;61978;52.742;16.962;2024-03-02T06:01:10;67.40;;;50.50;;
73678;SDS011;61978;52.742;16.962;2024-03-02T06:03:39;67.80;;;51.50;;
73678;SDS011;61978;52.742;16.962;2024-03-02T06:06:45;72.00;;;50.70;;
73678;SDS011;61978;52.742;16.962;2024-03-02T06:09:16;70.00;;;49.10;;
73678;SDS011;61978;52.742;16.962;2024-03-02T06:11:45;69.20;;;51.30;;
73678;SDS011;61978;52.742;16.962;2024-03-02T06:20:16;67.40;;;50.30;;
73678;SDS011;61978;52.742;16.962;2024-03-02T06:40:07;66.40;;;48.60;;
73678;SDS011;61978;52.742;16.962;2024-03-02T06:42:35;64.60;;;47.90;;
73678;SDS011;61978;52.742;16.962;2024-03-02T06:45:06;62.10;;;48.10;;
73678;SDS011;61978;52.742;16.962;2024-03-02T06:47:32;68.00;;;48.90;;
73678;SDS011;61978;52.742;16.962;2024-03-02T06:49:58;70.00;;;50.20;;
73678;SDS011;61978;52.742;16.962;2024-03-02T07:02:46;63.20;;;47.40;;
73678;SDS011;61978;52.742;16.962;2024-03-02T07:09:18;61.50;;;46.60;;
73678;SDS011;61978;52.742;16.962;2024-03-02T07:11:48;59.80;;;46.50;;
73678;SDS011;61978;52.742;16.962;2024-03-02T07:14:36;62.00;;;45.10;;
73678;SDS011;61978;52.742;16.962;2024-03-02T07:20:08;59.50;;;45.00;;
73678;SDS011;61978;52.742;16.962;2024-03-02T07:36:36;60.60;;;44.20;;
73678;SDS011;61978;52.742;16.962;2024-03-02T07:39:44;58.30;;;44.50;;
73678;SDS011;61978;52.742;16.962;2024-03-02T07:43:06;54.70;;;43.50;;
73678;SDS011;61978;52.742;16.962;2024-03-02T07:45:30;53.50;;;41.80;;
73678;SDS011;61978;52.742;16.962;2024-03-02T07:48:05;58.60;;;44.00;;
73678;SDS011;61978;52.742;16.962;2024-03-02T08:51:48;45.00;;;36.10;;
73678;SDS011;61978;52.742;16.962;2024-03-02T08:54:51;49.30;;;37.70;;
73678;SDS011;61978;52.742;16.962;2024-03-02T08:57:17;48.60;;;38.50;;
73678;SDS011;61978;52.742;16.962;2024-03-02T09:02:34;46.50;;;36.40;;
73678;SDS011;61978;52.742;16.962;2024-03-02T09:05:00;47.70;;;38.50;;
73678;SDS011;61978;52.742;16.962;2024-03-02T12:13:55;35.40;;;28.80;;
73678;SDS011;61978;52.742;16.962;2024-03-02T13:40:19;38.80;;;29.70;;
73678;SDS011;61978;52.742;16.962;2024-03-02T14:24:32;35.00;;;28.60;;
73678;SDS011;61978;52.742;16.962;2024-03-02T14:31:26;36.30;;;29.90;;
73678;SDS011;61978;52.742;16.962;2024-03-02T14:47:54;38.40;;;31.60;;
73678;SDS011;61978;52.742;16.962;2024-03-02T14:54:47;40.90;;;32.80;;
73678;SDS011;61978;52.742;16.962;2024-03-02T14:57:55;37.60;;;33.20;;
73678;SDS011;61978;52.742;16.962;2024-03-02T15:00:48;38.40;;;32.20;;
73678;SDS011;61978;52.742;16.962;2024-03-02T15:06:15;43.50;;;33.70;;
73678;SDS011;61978;52.742;16.962;2024-03-02T15:08:41;36.70;;;32.40;;
73678;SDS011;61978;52.742;16.962;2024-03-02T15:11:13;36.30;;;31.20;;
73678;SDS011;61978;52.742;16.962;2024-03-02T15:14:24;36.00;;;31.50;;
73678;SDS011;61978;52.742;16.962;2024-03-02T15:20:00;36.70;;;30.30;;
73678;SDS011;61978;52.742;16.962;2024-03-02T15:22:45;35.30;;;30.10;;
73678;SDS011;61978;52.742;16.962;2024-03-02T15:25:51;36.20;;;31.20;;
73678;SDS011;61978;52.742;16.962;2024-03-02T15:58:53;46.90;;;39.50;;
73678;SDS011;61978;52.742;16.962;2024-03-02T16:01:21;41.50;;;35.80;;
73678;SDS011;61978;52.742;16.962;2024-03-02T16:03:57;38.30;;;32.80;;
73678;SDS011;61978;52.742;16.962;2024-03-02T16:07:04;38.30;;;32.90;;
73678;SDS011;61978;52.742;16.962;2024-03-02T16:09:40;40.00;;;33.70;;
73678;SDS011;61978;52.742;16.962;2024-03-02T16:12:19;39.50;;;34.00;;
73678;SDS011;61978;52.742;16.962;2024-03-02T16:17:34;38.10;;;33.90;;
73678;SDS011;61978;52.742;16.962;2024-03-02T16:20:04;40.90;;;34.00;;
73678;SDS011;61978;52.742;16.962;2024-03-02T16:22:41;38.20;;;33.90;;
73678;SDS011;61978;52.742;16.962;2024-03-02T16:25:20;42.00;;;33.90;;
73678;SDS011;61978;52.742;16.962;2024-03-02T16:58:13;44.10;;;39.30;;
73678;SDS011;61978;52.742;16.962;2024-03-02T17:00:40;46.00;;;38.10;;
73678;SDS011;61978;52.742;16.962;2024-03-02T17:03:18;48.70;;;39.20;;
73678;SDS011;61978;52.742;16.962;2024-03-02T17:05:47;48.70;;;38.60;;
73678;SDS011;61978;52.742;16.962;2024-03-02T17:08:20;46.60;;;38.70;;
73678;SDS011;61978;52.742;16.962;2024-03-02T17:10:48;42.80;;;37.60;;
73678;SDS011;61978;52.742;16.962;2024-03-02T17:13:19;47.30;;;39.80;;
73678;SDS011;61978;52.742;16.962;2024-03-02T17:15:48;43.80;;;38.00;;
73678;SDS011;61978;52.742;16.962;2024-03-02T17:18:15;46.60;;;38.90;;
73678;SDS011;61978;52.742;16.962;2024-03-02T17:20:44;45.90;;;39.10;;
73678;SDS011;61978;52.742;16.962;2024-03-02T17:23:32;45.80;;;39.30;;
73678;SDS011;61978;52.742;16.962;2024-03-02T18:02:32;51.10;;;40.80;;
73678;SDS011;61978;52.742;16.962;2024-03-02T18:05:04;47.80;;;38.90;;
73678;SDS011;61978;52.742;16.962;2024-03-02T18:07:34;46.40;;;39.90;;
73678;SDS011;61978;52.742;16.962;2024-03-02T18:10:05;51.90;;;40.80;;
73678;SDS011;61978;52.742;16.962;2024-03-02T18:12:46;50.90;;;42.00;;
73678;SDS011;61978;52.742;16.962;2024-03-02T18:29:19;52.90;;;43.00;;
73678;SDS011;61978;52.742;16.962;2024-03-02T18:45:31;50.90;;;43.00;;
73678;SDS011;61978;52.742;16.962;2024-03-02T18:47:57;56.40;;;43.70;;
73678;SDS011;61978;52.742;16.962;2024-03-02T18:50:27;51.90;;;43.30;;
73678;SDS011;61978;52.742;16.962;2024-03-02T18:55:37;53.60;;;43.70;;
73678;SDS011;61978;52.742;16.962;2024-03-02T18:58:04;57.70;;;44.50;;
73678;SDS011;61978;52.742;16.962;2024-03-02T19:00:36;56.10;;;43.50;;
73678;SDS011;61978;52.742;16.962;2024-03-02T19:03:04;57.70;;;45.10;;
73678;SDS011;61978;52.742;16.962;2024-03-02T19:05:32;54.40;;;43.10;;
73678;SDS011;61978;52.742;16.962;2024-03-02T19:08:02;53.60;;;44.00;;
73678;SDS011;61978;52.742;16.962;2024-03-02T19:10:28;54.50;;;44.30;;
73678;SDS011;61978;52.742;16.962;2024-03-02T19:17:07;55.90;;;45.50;;
73678;SDS011;61978;52.742;16.962;2024-03-02T19:23:19;58.20;;;45.20;;
73678;SDS011;61978;52.742;16.962;2024-03-02T19:26:14;59.20;;;47.30;;
73678;SDS011;61978;52.742;16.962;2024-03-02T19:29:28;54.60;;;46.10;;
73678;SDS011;61978;52.742;16.962;2024-03-02T19:32:17;57.90;;;47.20;;
73678;SDS011;61978;52.742;16.962;2024-03-02T19:34:50;63.50;;;45.60;;
73678;SDS011;61978;52.742;16.962;2024-03-02T19:37:20;61.80;;;46.20;;
73678;SDS011;61978;52.742;16.962;2024-03-02T20:06:41;74.30;;;51.80;;
73678;SDS011;61978;52.742;16.962;2024-03-02T20:30:18;71.40;;;52.60;;
73678;SDS011;61978;52.742;16.962;2024-03-02T20:40:40;67.80;;;50.50;;
73678;SDS011;61978;52.742;16.962;2024-03-02T20:44:09;74.30;;;54.80;;
73678;SDS011;61978;52.742;16.962;2024-03-02T20:46:52;69.10;;;52.40;;
73678;SDS011;61978;52.742;16.962;2024-03-02T20:49:23;73.60;;;53.60;;
73678;SDS011;61978;52.742;16.962;2024-03-02T20:54:43;71.00;;;53.90;;
73678;SDS011;61978;52.742;16.962;2024-03-02T20:57:11;71.00;;;55.30;;
73678;SDS011;61978;52.742;16.962;2024-03-02T21:27:14;74.40;;;57.40;;
73678;SDS011;61978;52.742;16.962;2024-03-02T21:30:20;73.80;;;54.80;;
73678;SDS011;61978;52.742;16.962;2024-03-02T21:50:19;77.60;;;57.70;;
73678;SDS011;61978;52.742;16.962;2024-03-02T22:48:09;86.10;;;61.00;;
73678;SDS011;61978;52.742;16.962;2024-03-02T23:52:34;93.90;;;63.60;;
